首页
METAR-TAF:

METAR-TAF

机场 :

Abraham Lincoln Capital Airport

斯普林菲尔德, 伊利诺伊州, 美国

纬度: 39-50-43N, 经度: 089-41-02W, 海拔: 182米

当前天气观测

该预报发布于21分钟前的13:03 UTC
风速5节,风向
温度 21°C
湿度 88%
气压 1014 hPa
能見度: 8.0公里
多云层高于2800英尺
轻雾

METAR: KSPI 181303Z 01005KT 5SM BR BKN028 21/19 A2995 RMK AO2 T02060189

时间: 08:24 (13:24 UTC)

预报

该预报发布于1小时和41分钟前的11:43 UTC
预报有效从18日的 12点(UTC)到 19日的 12点(UTC)
风速4节,风向北转东北
能見度: 6.4公里
散云层高于800英尺
多云层高于3000英尺
轻雾
短暂存在
从 18日的 12点(UTC)到 18日的 13点(UTC)
能見度: 3.2公里
多云层高于800英尺
轻雾
从 18日的 1400点(UTC)
风速4节,风向北转东北
能見度: 10公里
多云层高于3000英尺
从 18日的 1700点(UTC)
风速5节,风向东北
能見度: 10公里
多云层高于3500英尺
从 18日的 2100点(UTC)
风速5节,风向
能見度: 10公里
散云层高于6000英尺

TAF: KSPI 181143Z 1812/1912 03004KT 4SM BR SCT008 BKN030 TEMPO 1812/1813 2SM BR BKN008 FM181400 03004KT P6SM BKN030 FM181700 04005KT P6SM BKN035 FM182100 01005KT P6SM SCT060

超过4000个机场的气象观测和天气预报(METAR&TAF报告)。

可查询的气象台以黄色和红色小点在地图上表示。

将鼠标移到小点上方,可查看气象台名称。

然后点击查看天气观测和预报。

如需切换地图:点击带黑十字的绿色按钮放大地图;点击带横线的绿色按钮缩小地图;或者点击绿色箭头查看邻近地区的地图。


METAR-TAF: